CaraVOS Liberty — V7AH7 — position and weather

sailwx.info

Track history (hours):
 
Tides and Currents Weather Stations Pressure Air Temp Water Temp Dewpoint Dewpoint Depression Visibility Wind Speed Wind Dir Waves Ship Positions

CaraVOS Liberty

Last reported at 2017-Oct-04 22:50 UTC. Time now 2017-Nov-22 18:39 UTC.
Position N 36°19' E 014°48'.
Warning: this ship's position is 48 days out of date.

Length 200 m; draft 12 m.

Type: Cargo ship. MMSI: 538004998.

Date/timePositionNaut miles runAvg speedWind from/ knotsBaromVisibWave heightAir tempDewpointWater temp
2017-Oct-04 22:50N 36°19' E 014°48'412.2
2017-Oct-04 22:30N 36°21' E 014°43'611.9
2017-Oct-04 22:00N 36°22' E 014°35'611.9
2017-Oct-04 21:30N 36°24' E 014°28'611.8
2017-Oct-04 21:00N 36°25' E 014°21'611.8
2017-Oct-04 20:30N 36°26' E 014°14'611.8
2017-Oct-04 20:00N 36°28' E 014°07'  
2017-Oct-01 14:57N 36°01' W 005°05'612.9
2017-Oct-01 14:30N 36°01' W 005°12'611.3
2017-Oct-01 14:00N 36°02' W 005°19'510.4
2017-Oct-01 13:30N 36°07' W 005°22'0 0.7
2017-Oct-01 13:00N 36°07' W 005°22'0 0.0
2017-Oct-01 12:27N 36°07' W 005°22'0 0.0
2017-Oct-01 11:57N 36°07' W 005°22'0 0.0
2017-Oct-01 11:30N 36°07' W 005°22'0 0.0
2017-Oct-01 11:00N 36°07' W 005°22'0 0.1
2017-Oct-01 10:24N 36°07' W 005°22'0 0.2
2017-Oct-01 09:48N 36°07' W 005°22'0 0.2
2017-Oct-01 09:30N 36°07' W 005°22'0 0.0
2017-Oct-01 09:00N 36°07' W 005°22'0 0.1
2017-Oct-01 08:30N 36°07' W 005°22'0 0.2
2017-Oct-01 08:00N 36°07' W 005°22'1 1.8
2017-Oct-01 07:30N 36°06' W 005°22'1 1.7
2017-Oct-01 07:00N 36°05' W 005°21'3 6.4
2017-Oct-01 06:30N 36°05' W 005°18'3 5.3
2017-Oct-01 05:58N 36°05' W 005°14'0 0.6
2017-Oct-01 05:28N 36°05' W 005°14'0 0.7
2017-Oct-01 04:58N 36°06' W 005°13'0 0.8
2017-Oct-01 04:22N 36°06' W 005°13'0 0.9
2017-Oct-01 03:59N 36°07' W 005°13'0 0.9
2017-Oct-01 03:30N 36°07' W 005°13'5 9.1
2017-Oct-01 03:00N 36°02' W 005°14'  
Track history (hours):
 
Tides and Currents Weather Stations Pressure Air Temp Water Temp Dewpoint Dewpoint Depression Visibility Wind Speed Wind Dir Waves Ship Positions

CaraVOS Liberty

Last reported at 2017-Oct-04 22:50 UTC. Time now 2017-Nov-22 18:39 UTC.
Position N 36°19' E 014°48'.
Warning: this ship's position is 48 days out of date.

Length 200 m; draft 12 m.

Type: Cargo ship. MMSI: 538004998.

Date/timePositionNaut miles runAvg speedWind from/ knotsBaromVisibWave heightAir tempDewpointWater temp
2017-Oct-04 22:50N 36°19' E 014°48'412.2
2017-Oct-04 22:30N 36°21' E 014°43'611.9
2017-Oct-04 22:00N 36°22' E 014°35'611.9
2017-Oct-04 21:30N 36°24' E 014°28'611.8
2017-Oct-04 21:00N 36°25' E 014°21'611.8
2017-Oct-04 20:30N 36°26' E 014°14'611.8
2017-Oct-04 20:00N 36°28' E 014°07'  
2017-Oct-01 14:57N 36°01' W 005°05'612.9
2017-Oct-01 14:30N 36°01' W 005°12'611.3
2017-Oct-01 14:00N 36°02' W 005°19'510.4
2017-Oct-01 13:30N 36°07' W 005°22'0 0.7
2017-Oct-01 13:00N 36°07' W 005°22'0 0.0
2017-Oct-01 12:27N 36°07' W 005°22'0 0.0
2017-Oct-01 11:57N 36°07' W 005°22'0 0.0
2017-Oct-01 11:30N 36°07' W 005°22'0 0.0
2017-Oct-01 11:00N 36°07' W 005°22'0 0.1
2017-Oct-01 10:24N 36°07' W 005°22'0 0.2
2017-Oct-01 09:48N 36°07' W 005°22'0 0.2
2017-Oct-01 09:30N 36°07' W 005°22'0 0.0
2017-Oct-01 09:00N 36°07' W 005°22'0 0.1
2017-Oct-01 08:30N 36°07' W 005°22'0 0.2
2017-Oct-01 08:00N 36°07' W 005°22'1 1.8
2017-Oct-01 07:30N 36°06' W 005°22'1 1.7
2017-Oct-01 07:00N 36°05' W 005°21'3 6.4
2017-Oct-01 06:30N 36°05' W 005°18'3 5.3
2017-Oct-01 05:58N 36°05' W 005°14'0 0.6
2017-Oct-01 05:28N 36°05' W 005°14'0 0.7
2017-Oct-01 04:58N 36°06' W 005°13'0 0.8
2017-Oct-01 04:22N 36°06' W 005°13'0 0.9
2017-Oct-01 03:59N 36°07' W 005°13'0 0.9
2017-Oct-01 03:30N 36°07' W 005°13'5 9.1
2017-Oct-01 03:00N 36°02' W 005°14'  

Dump ship's entire track history